createdAt,value
2023-03-31T00:00:53.631Z,81.41
2023-03-31T00:03:25.033Z,81.66
2023-03-31T00:05:59.277Z,81.99
2023-03-31T00:08:30.312Z,82.31
2023-03-31T00:11:00.777Z,82.34
2023-03-31T00:13:29.800Z,82.00
2023-03-31T00:16:04.234Z,81.57
2023-03-31T00:18:31.862Z,81.66
2023-03-31T00:21:24.658Z,81.34
2023-03-31T00:23:58.348Z,81.01
2023-03-31T00:26:26.468Z,82.53
2023-03-31T00:28:54.448Z,82.76
2023-03-31T00:31:22.838Z,82.81
2023-03-31T00:33:50.956Z,82.69
2023-03-31T00:36:21.594Z,82.66
2023-03-31T00:38:49.390Z,82.72
2023-03-31T00:41:17.367Z,82.67
2023-03-31T00:44:06.692Z,82.34
2023-03-31T00:46:54.607Z,83.86
2023-03-31T00:49:28.048Z,85.05
2023-03-31T00:52:00.306Z,85.33
2023-03-31T00:54:29.165Z,84.95
2023-03-31T00:56:58.721Z,85.06
2023-03-31T00:59:30.499Z,85.54
2023-03-31T01:02:02.698Z,85.77
2023-03-31T01:04:38.872Z,86.83
2023-03-31T01:07:31.012Z,87.18
2023-03-31T01:10:01.605Z,87.13
2023-03-31T01:12:29.288Z,86.25
2023-03-31T01:14:56.917Z,85.96
2023-03-31T01:17:25.089Z,86.16
2023-03-31T01:20:14.701Z,86.63
2023-03-31T01:22:51.562Z,86.77
2023-03-31T01:25:24.661Z,86.12
2023-03-31T01:28:01.704Z,86.22
2023-03-31T01:30:50.368Z,85.78
2023-03-31T01:33:32.960Z,86.29
2023-03-31T01:36:29.226Z,85.85
2023-03-31T01:39:17.671Z,86.44
2023-03-31T01:42:12.562Z,87.35
2023-03-31T01:44:53.411Z,88.02
2023-03-31T01:47:30.100Z,89.12
2023-03-31T01:50:08.008Z,90.15
2023-03-31T01:53:04.879Z,91.20
2023-03-31T01:55:46.714Z,90.83
2023-03-31T01:58:26.797Z,90.72
2023-03-31T02:01:06.327Z,91.11
2023-03-31T02:03:49.677Z,92.18
2023-03-31T02:06:22.046Z,92.49
2023-03-31T02:08:58.605Z,92.71
2023-03-31T02:11:28.515Z,93.16
2023-03-31T02:13:57.871Z,92.60
2023-03-31T02:16:27.900Z,93.85
2023-03-31T02:19:02.468Z,94.19
2023-03-31T02:21:34.249Z,93.98
2023-03-31T02:24:06.918Z,95.19
2023-03-31T02:26:40.527Z,94.89
2023-03-31T02:29:08.201Z,94.45
2023-03-31T02:31:48.342Z,95.44
2023-03-31T02:34:16.193Z,94.72
2023-03-31T02:36:45.717Z,94.62
2023-03-31T02:39:19.968Z,95.68
2023-03-31T02:41:47.370Z,95.17
2023-03-31T02:44:17.198Z,94.41
2023-03-31T02:46:46.962Z,94.26
2023-03-31T02:49:16.279Z,94.25
2023-03-31T02:52:11.279Z,93.64
2023-03-31T02:55:09.863Z,93.15
2023-03-31T02:57:43.234Z,93.15
2023-03-31T03:00:48.323Z,93.49
2023-03-31T03:03:26.651Z,93.57
2023-03-31T03:06:13.664Z,93.78
2023-03-31T03:09:50.328Z,93.79
2023-03-31T03:12:25.321Z,93.41
2023-03-31T03:15:17.320Z,93.16
2023-03-31T03:17:46.807Z,93.56
2023-03-31T03:20:16.340Z,93.93
2023-03-31T03:22:43.796Z,94.17
2023-03-31T03:25:15.018Z,93.88
2023-03-31T03:27:42.932Z,93.18
2023-03-31T03:30:13.027Z,93.02
2023-03-31T03:32:41.802Z,93.02
2023-03-31T03:35:09.428Z,93.14
2023-03-31T03:37:37.092Z,93.24
2023-03-31T03:40:08.302Z,93.52
2023-03-31T03:42:36.062Z,93.81
2023-03-31T03:45:03.704Z,93.26
2023-03-31T03:47:31.229Z,93.60
2023-03-31T03:49:58.698Z,93.13
2023-03-31T03:52:26.226Z,92.90
2023-03-31T03:54:53.568Z,92.07
2023-03-31T03:57:21.111Z,91.68
2023-03-31T03:59:48.504Z,91.64
2023-03-31T04:02:16.051Z,92.45
2023-03-31T04:04:43.515Z,90.36
2023-03-31T04:07:10.952Z,90.25
2023-03-31T04:09:38.349Z,90.51
2023-03-31T04:12:05.886Z,92.48
2023-03-31T04:14:33.468Z,92.80
2023-03-31T04:17:02.721Z,93.74
2023-03-31T04:19:30.116Z,93.58
2023-03-31T04:22:03.108Z,93.93
2023-03-31T04:24:33.062Z,93.90
2023-03-31T04:27:03.085Z,93.26
2023-03-31T04:29:33.762Z,93.60
2023-03-31T04:32:01.603Z,93.91
2023-03-31T04:34:35.592Z,94.13
2023-03-31T04:37:04.197Z,93.43
2023-03-31T04:39:31.825Z,93.68
2023-03-31T04:42:00.659Z,93.53
2023-03-31T04:44:28.125Z,94.29
2023-03-31T04:46:56.111Z,94.23
2023-03-31T04:49:23.481Z,93.25
2023-03-31T04:51:51.127Z,93.68
2023-03-31T04:54:18.568Z,93.79
2023-03-31T04:56:46.569Z,94.09
2023-03-31T04:59:14.016Z,94.02
2023-03-31T05:01:45.135Z,94.11
2023-03-31T05:04:12.818Z,94.82
2023-03-31T05:06:40.348Z,94.98
2023-03-31T05:09:09.674Z,95.14
2023-03-31T05:11:38.403Z,95.91
2023-03-31T05:14:06.131Z,94.75
2023-03-31T05:16:34.118Z,95.24
2023-03-31T05:19:01.556Z,95.80
2023-03-31T05:21:30.672Z,96.48
2023-03-31T05:23:58.220Z,96.39
2023-03-31T05:26:26.136Z,96.47
2023-03-31T05:28:54.166Z,95.90
2023-03-31T05:31:21.632Z,94.93
2023-03-31T05:33:49.072Z,94.60
2023-03-31T05:36:17.959Z,95.01
2023-03-31T05:38:45.876Z,95.37
2023-03-31T05:41:13.226Z,95.26
2023-03-31T05:43:40.711Z,95.11
2023-03-31T05:46:08.578Z,95.22
2023-03-31T05:48:38.107Z,95.67
2023-03-31T05:51:06.138Z,95.02
2023-03-31T05:53:34.209Z,94.67
2023-03-31T05:56:05.726Z,95.02
2023-03-31T05:58:37.319Z,94.84
2023-03-31T06:01:10.842Z,94.25
2023-03-31T06:03:41.496Z,93.87
2023-03-31T06:06:10.485Z,93.49
2023-03-31T06:08:38.054Z,93.85
2023-03-31T06:11:10.998Z,93.44
2023-03-31T06:13:39.384Z,92.83
2023-03-31T06:16:08.047Z,92.56
2023-03-31T06:18:36.465Z,92.25
2023-03-31T06:21:04.852Z,92.03
2023-03-31T06:23:33.246Z,92.17
2023-03-31T06:26:03.385Z,91.90
2023-03-31T06:28:31.237Z,91.84
2023-03-31T06:31:08.643Z,92.46
2023-03-31T06:33:36.392Z,92.48
2023-03-31T06:36:05.688Z,91.81
2023-03-31T06:38:35.090Z,92.31
2023-03-31T06:41:02.956Z,91.97
2023-03-31T06:43:30.687Z,91.57
2023-03-31T06:45:58.480Z,90.99
2023-03-31T06:48:26.016Z,90.83
2023-03-31T06:50:54.908Z,91.11
2023-03-31T06:53:22.367Z,90.31
2023-03-31T06:55:49.731Z,89.63
2023-03-31T06:58:16.998Z,88.92
2023-03-31T07:00:46.128Z,88.08
2023-03-31T07:03:14.773Z,88.42
2023-03-31T07:05:42.202Z,86.90
2023-03-31T07:08:09.473Z,86.87
2023-03-31T07:10:36.754Z,85.57
2023-03-31T07:13:05.605Z,86.16
2023-03-31T07:15:33.264Z,85.85
2023-03-31T07:18:03.382Z,86.78
2023-03-31T07:20:31.041Z,86.09
2023-03-31T07:22:58.375Z,86.78
2023-03-31T07:25:25.924Z,85.91
2023-03-31T07:27:53.599Z,86.37
2023-03-31T07:30:21.902Z,85.86
2023-03-31T07:32:51.239Z,84.93
2023-03-31T07:35:19.667Z,85.28
2023-03-31T07:37:49.072Z,85.28
2023-03-31T07:40:20.860Z,84.77
2023-03-31T07:42:49.529Z,84.93
2023-03-31T07:45:17.402Z,84.88
2023-03-31T07:47:46.533Z,85.11
2023-03-31T07:50:16.549Z,85.26
2023-03-31T07:52:46.912Z,85.07
2023-03-31T07:55:15.775Z,85.82
2023-03-31T07:57:43.639Z,85.62
2023-03-31T08:00:12.627Z,85.64
2023-03-31T08:02:43.117Z,85.28
2023-03-31T08:05:15.877Z,85.20
2023-03-31T08:07:46.053Z,85.51
2023-03-31T08:10:18.944Z,85.66
2023-03-31T08:12:46.666Z,85.43
2023-03-31T08:15:14.285Z,85.62
2023-03-31T08:17:41.942Z,85.59
2023-03-31T08:20:12.790Z,85.12
2023-03-31T08:22:40.959Z,84.63
2023-03-31T08:25:09.486Z,84.42
2023-03-31T08:27:40.210Z,84.72
2023-03-31T08:30:10.226Z,84.61
2023-03-31T08:32:37.698Z,84.76
2023-03-31T08:35:05.708Z,85.30
2023-03-31T08:37:33.324Z,85.28
2023-03-31T08:40:00.858Z,84.83
2023-03-31T08:42:44.901Z,84.49
2023-03-31T08:45:47.764Z,84.13
2023-03-31T08:48:22.165Z,83.74
2023-03-31T08:50:56.527Z,84.62
2023-03-31T08:53:31.090Z,84.00
2023-03-31T08:55:59.313Z,84.45
2023-03-31T08:58:39.973Z,84.78
2023-03-31T09:01:17.178Z,85.60
2023-03-31T09:03:59.954Z,85.96
2023-03-31T09:06:33.933Z,86.05
2023-03-31T09:09:03.670Z,86.42
2023-03-31T09:11:44.410Z,86.17
2023-03-31T09:14:37.040Z,85.31
2023-03-31T09:17:19.087Z,85.07
2023-03-31T09:19:52.670Z,84.81
2023-03-31T09:22:29.232Z,85.05
2023-03-31T09:25:12.300Z,84.42
2023-03-31T09:27:43.740Z,84.61
2023-03-31T09:30:21.072Z,84.81
2023-03-31T09:32:52.625Z,84.58
2023-03-31T09:35:23.637Z,84.75
2023-03-31T09:37:52.259Z,84.84
2023-03-31T09:40:22.817Z,84.98
2023-03-31T09:43:07.090Z,84.77
2023-03-31T09:45:35.856Z,84.87
2023-03-31T09:48:16.696Z,84.66
2023-03-31T09:50:51.905Z,84.55
2023-03-31T09:53:28.047Z,84.09
2023-03-31T09:56:01.920Z,84.14
2023-03-31T09:58:29.421Z,85.00
2023-03-31T10:01:09.798Z,85.22
2023-03-31T10:04:08.236Z,85.04
2023-03-31T10:06:42.550Z,84.37
2023-03-31T10:09:11.506Z,84.39
2023-03-31T10:11:40.134Z,84.74
2023-03-31T10:14:14.587Z,84.44
2023-03-31T10:16:50.486Z,83.12
2023-03-31T10:19:31.636Z,83.25
2023-03-31T10:22:26.431Z,83.78
2023-03-31T10:24:54.875Z,83.79
2023-03-31T10:27:30.961Z,82.89
2023-03-31T10:30:01.843Z,81.68
2023-03-31T10:32:35.386Z,81.37
2023-03-31T10:35:23.005Z,82.33
2023-03-31T10:37:54.783Z,83.52
2023-03-31T10:40:25.718Z,83.66
2023-03-31T10:43:03.097Z,83.19
2023-03-31T10:45:38.355Z,82.75
2023-03-31T10:48:24.606Z,82.17
2023-03-31T10:50:52.369Z,81.29
2023-03-31T10:53:20.602Z,80.78
2023-03-31T10:56:03.118Z,82.03
2023-03-31T10:59:06.638Z,79.79
2023-03-31T11:01:45.656Z,79.89
2023-03-31T11:04:19.028Z,80.00
2023-03-31T11:07:04.624Z,80.51
2023-03-31T11:09:42.517Z,79.81
2023-03-31T11:12:31.672Z,80.31
2023-03-31T11:15:14.456Z,80.58
2023-03-31T11:18:09.364Z,79.90
2023-03-31T11:20:49.804Z,78.60
2023-03-31T11:23:53.641Z,77.57
2023-03-31T11:26:38.277Z,75.66
2023-03-31T11:29:16.629Z,75.91
2023-03-31T11:31:55.854Z,76.13
2023-03-31T11:34:29.733Z,76.06
2023-03-31T11:37:15.470Z,75.42
2023-03-31T11:40:02.990Z,75.15
2023-03-31T11:42:39.247Z,74.22
2023-03-31T11:45:28.532Z,73.30
2023-03-31T11:48:05.488Z,73.30
2023-03-31T11:50:39.891Z,73.83
2023-03-31T11:53:18.976Z,71.41
2023-03-31T11:55:50.680Z,72.03
2023-03-31T11:58:30.101Z,71.12
2023-03-31T12:01:06.129Z,68.49
2023-03-31T12:03:38.767Z,69.00
2023-03-31T12:06:17.387Z,69.53
2023-03-31T12:09:13.030Z,69.78
2023-03-31T12:11:53.746Z,69.90
2023-03-31T12:14:31.213Z,67.59
2023-03-31T12:17:05.377Z,67.15
2023-03-31T12:19:44.864Z,63.22
2023-03-31T12:22:19.871Z,66.22
2023-03-31T12:24:47.215Z,66.47
2023-03-31T12:27:31.891Z,62.94
2023-03-31T12:30:05.330Z,62.55
2023-03-31T12:32:38.742Z,62.81
2023-03-31T12:35:27.405Z,62.19
2023-03-31T12:38:13.473Z,61.39
2023-03-31T12:40:51.724Z,61.47
2023-03-31T12:43:21.813Z,61.87
2023-03-31T12:46:22.219Z,61.99
2023-03-31T12:49:24.988Z,61.63
2023-03-31T12:52:07.275Z,61.53
2023-03-31T12:54:53.470Z,61.29
2023-03-31T12:57:22.189Z,61.32
2023-03-31T13:00:10.469Z,61.63
2023-03-31T13:02:38.632Z,61.99
2023-03-31T13:05:40.949Z,61.38
2023-03-31T13:08:09.410Z,61.61
2023-03-31T13:10:58.411Z,61.71
2023-03-31T13:13:26.800Z,61.74
2023-03-31T13:15:58.314Z,61.79
2023-03-31T13:18:25.838Z,61.55
2023-03-31T13:21:05.442Z,60.81
2023-03-31T13:23:37.411Z,61.20
2023-03-31T13:26:06.902Z,61.23
2023-03-31T13:28:42.762Z,60.93
2023-03-31T13:31:16.426Z,61.05
2023-03-31T13:33:47.003Z,60.37
2023-03-31T13:36:32.822Z,60.16
2023-03-31T13:39:11.135Z,60.67
2023-03-31T13:42:17.379Z,60.84
2023-03-31T13:45:10.956Z,60.84
2023-03-31T13:47:49.439Z,61.15
2023-03-31T13:51:02.775Z,60.98
2023-03-31T13:53:55.086Z,61.28
2023-03-31T13:56:52.379Z,61.21
2023-03-31T13:59:55.999Z,60.99
2023-03-31T14:02:44.675Z,61.15
2023-03-31T14:05:30.365Z,60.47
2023-03-31T14:08:14.988Z,60.44
2023-03-31T14:10:49.849Z,61.56
2023-03-31T14:13:25.324Z,61.45
2023-03-31T14:16:01.414Z,60.17
2023-03-31T14:18:33.868Z,60.72
2023-03-31T14:21:33.858Z,60.40
2023-03-31T14:24:15.072Z,61.26
2023-03-31T14:27:20.252Z,60.78
2023-03-31T14:30:08.299Z,60.60
2023-03-31T14:32:38.609Z,60.68
2023-03-31T14:35:32.286Z,61.22
2023-03-31T14:38:03.978Z,61.60
2023-03-31T14:40:31.259Z,61.55
2023-03-31T14:42:58.954Z,61.81
2023-03-31T14:45:31.551Z,61.60
2023-03-31T14:48:04.744Z,61.79
2023-03-31T14:50:36.760Z,61.40
2023-03-31T14:53:04.946Z,61.23
2023-03-31T14:55:49.758Z,61.11
2023-03-31T14:58:30.752Z,61.08
2023-03-31T15:00:59.422Z,61.25
2023-03-31T15:03:27.742Z,61.47
2023-03-31T15:06:00.811Z,61.81
2023-03-31T15:08:30.595Z,61.53
2023-03-31T15:14:01.236Z,62.29
2023-03-31T15:16:43.208Z,62.89
2023-03-31T15:19:25.409Z,62.11
2023-03-31T15:22:10.744Z,62.30
2023-03-31T15:24:38.864Z,63.45
2023-03-31T15:27:14.872Z,63.68
2023-03-31T15:29:57.703Z,63.04
2023-03-31T15:32:31.212Z,63.57
2023-03-31T15:35:11.088Z,64.03
2023-03-31T15:37:47.202Z,64.07
2023-03-31T15:40:32.652Z,64.41
2023-03-31T15:43:24.524Z,64.27
2023-03-31T15:45:55.059Z,64.14
2023-03-31T15:48:28.779Z,64.39
2023-03-31T15:51:36.238Z,64.84
2023-03-31T15:54:03.983Z,64.87
2023-03-31T15:56:36.330Z,64.32
2023-03-31T15:59:05.621Z,64.78
2023-03-31T16:01:42.048Z,64.48
2023-03-31T16:04:12.867Z,65.20
2023-03-31T16:06:52.713Z,65.31
2023-03-31T16:09:41.417Z,65.52
2023-03-31T16:12:23.114Z,66.10
2023-03-31T16:14:53.846Z,65.82
2023-03-31T16:17:34.870Z,65.52
2023-03-31T16:20:09.609Z,66.24
2023-03-31T16:22:43.377Z,66.19
2023-03-31T16:25:14.852Z,66.46
2023-03-31T16:27:46.890Z,66.81
2023-03-31T16:30:17.734Z,67.09
2023-03-31T16:33:05.693Z,66.93
2023-03-31T16:35:37.009Z,66.95
2023-03-31T16:38:06.707Z,66.84
2023-03-31T16:40:39.830Z,66.93
2023-03-31T16:43:17.389Z,66.57
2023-03-31T16:45:52.944Z,66.75
2023-03-31T16:48:22.842Z,66.76
2023-03-31T16:50:53.201Z,66.89
2023-03-31T16:53:23.891Z,67.41
2023-03-31T16:55:51.621Z,66.41
2023-03-31T16:58:19.177Z,66.92
2023-03-31T17:00:47.783Z,67.55
2023-03-31T17:03:16.603Z,68.25
2023-03-31T17:05:46.574Z,68.01
2023-03-31T17:08:15.774Z,67.82
2023-03-31T17:10:52.095Z,67.08
2023-03-31T17:13:20.633Z,67.10
2023-03-31T17:15:49.492Z,68.08
2023-03-31T17:18:17.348Z,69.37
2023-03-31T17:20:44.873Z,68.22
2023-03-31T17:23:12.899Z,69.01
2023-03-31T17:25:47.520Z,69.43
2023-03-31T17:28:14.942Z,70.34
2023-03-31T17:30:44.330Z,70.50
2023-03-31T17:33:11.807Z,71.37
2023-03-31T17:35:39.259Z,71.34
2023-03-31T17:38:06.672Z,71.29
2023-03-31T17:40:34.699Z,71.28
2023-03-31T17:43:02.911Z,71.67
2023-03-31T17:45:32.204Z,71.71
2023-03-31T17:48:00.305Z,71.72
2023-03-31T17:50:28.260Z,71.80
2023-03-31T17:52:55.704Z,71.75
2023-03-31T17:55:23.574Z,72.37
2023-03-31T17:57:51.453Z,72.49
2023-03-31T18:00:19.704Z,72.74
2023-03-31T18:02:47.075Z,73.05
2023-03-31T18:05:29.398Z,73.58
2023-03-31T18:07:56.887Z,73.75
2023-03-31T18:10:26.517Z,73.51
2023-03-31T18:12:55.018Z,74.50
2023-03-31T18:15:22.762Z,74.49
2023-03-31T18:17:50.732Z,74.70
2023-03-31T18:20:18.286Z,75.36
2023-03-31T18:22:45.783Z,76.03
2023-03-31T18:25:13.241Z,75.90
2023-03-31T18:27:40.729Z,76.26
2023-03-31T18:30:08.673Z,76.93
2023-03-31T18:32:36.781Z,76.66
2023-03-31T18:35:05.722Z,76.70
2023-03-31T18:37:33.975Z,77.00
2023-03-31T18:40:01.611Z,77.60
2023-03-31T18:42:29.077Z,77.96
2023-03-31T18:44:56.750Z,78.42
2023-03-31T18:47:24.605Z,78.46
2023-03-31T18:49:55.626Z,78.73
2023-03-31T18:52:23.297Z,78.31
2023-03-31T18:54:51.443Z,77.62
2023-03-31T18:57:19.115Z,77.05
2023-03-31T18:59:47.126Z,76.84
2023-03-31T19:02:18.222Z,76.92
2023-03-31T19:04:47.023Z,76.59
2023-03-31T19:07:15.674Z,76.98
2023-03-31T19:09:43.353Z,77.03
2023-03-31T19:12:11.914Z,76.89
2023-03-31T19:14:41.073Z,76.87
2023-03-31T19:17:08.778Z,76.99
2023-03-31T19:19:36.758Z,76.71
2023-03-31T19:22:04.160Z,76.86
2023-03-31T19:24:31.721Z,76.96
2023-03-31T19:26:59.143Z,76.87
2023-03-31T19:29:28.113Z,76.97
2023-03-31T19:31:56.183Z,77.89
2023-03-31T19:34:23.656Z,77.73
2023-03-31T19:36:51.600Z,77.46
2023-03-31T19:39:18.983Z,78.90
2023-03-31T19:41:47.060Z,79.08
2023-03-31T19:44:14.404Z,79.70
2023-03-31T19:46:41.842Z,80.46
2023-03-31T19:49:09.538Z,79.99
2023-03-31T19:51:36.948Z,80.49
2023-03-31T19:54:04.485Z,81.01
2023-03-31T19:56:32.696Z,81.34
2023-03-31T19:59:00.308Z,81.00
2023-03-31T20:01:28.203Z,80.84
2023-03-31T20:03:56.309Z,80.72
2023-03-31T20:06:26.589Z,80.42
2023-03-31T20:08:59.513Z,80.47
2023-03-31T20:11:28.470Z,80.49
2023-03-31T20:13:56.039Z,80.70
2023-03-31T20:16:26.419Z,80.95
2023-03-31T20:18:56.682Z,81.50
2023-03-31T20:21:27.304Z,81.55
2023-03-31T20:23:55.293Z,82.51
2023-03-31T20:26:25.265Z,82.55
2023-03-31T20:28:54.912Z,83.00
2023-03-31T20:31:25.218Z,84.50
2023-03-31T20:33:54.239Z,84.75
2023-03-31T20:36:29.782Z,84.42
2023-03-31T20:38:59.131Z,84.34
2023-03-31T20:41:31.073Z,84.60
2023-03-31T20:43:59.103Z,85.11
2023-03-31T20:46:27.348Z,85.05
2023-03-31T20:48:57.318Z,85.59
2023-03-31T20:51:32.486Z,85.12
2023-03-31T20:54:01.944Z,85.60
2023-03-31T20:56:37.899Z,85.93
2023-03-31T20:59:08.101Z,86.02
2023-03-31T21:01:36.552Z,86.22
2023-03-31T21:04:06.711Z,85.61
2023-03-31T21:06:41.834Z,85.98
2023-03-31T21:09:11.688Z,86.09
2023-03-31T21:11:42.425Z,85.57
2023-03-31T21:14:14.890Z,85.19
2023-03-31T21:16:42.652Z,84.90
2023-03-31T21:19:10.732Z,85.16
2023-03-31T21:21:41.103Z,84.71
2023-03-31T21:24:11.632Z,83.53
2023-03-31T21:26:39.790Z,84.20
2023-03-31T21:29:08.110Z,84.56
2023-03-31T21:31:35.621Z,85.52
2023-03-31T21:34:03.454Z,85.27
2023-03-31T21:36:31.284Z,85.38
2023-03-31T21:38:58.787Z,86.28
2023-03-31T21:41:29.928Z,85.96
2023-03-31T21:44:00.456Z,86.12
2023-03-31T21:46:31.148Z,85.81
2023-03-31T21:48:58.687Z,85.83
2023-03-31T21:51:26.636Z,85.95
2023-03-31T21:53:55.670Z,86.15
2023-03-31T21:56:25.181Z,85.79
2023-03-31T21:58:52.710Z,86.57
2023-03-31T22:01:21.759Z,86.37
2023-03-31T22:03:50.057Z,86.10
2023-03-31T22:06:17.905Z,85.78
2023-03-31T22:08:45.985Z,85.72
2023-03-31T22:11:13.912Z,86.26
2023-03-31T22:13:41.442Z,86.50
2023-03-31T22:16:21.133Z,86.14
2023-03-31T22:18:50.425Z,86.51
2023-03-31T22:21:21.701Z,86.76
2023-03-31T22:23:51.915Z,87.17
2023-03-31T22:26:19.593Z,86.89
2023-03-31T22:28:47.476Z,86.23
2023-03-31T22:31:15.391Z,86.30
2023-03-31T22:33:42.818Z,86.02
2023-03-31T22:36:10.721Z,86.31
2023-03-31T22:38:38.654Z,87.10
2023-03-31T22:41:06.856Z,87.78
2023-03-31T22:43:34.312Z,88.20
2023-03-31T22:46:06.695Z,88.56
2023-03-31T22:48:34.639Z,88.66
2023-03-31T22:51:04.700Z,88.59
2023-03-31T22:53:33.162Z,88.26
2023-03-31T22:56:10.655Z,88.58
2023-03-31T22:58:38.353Z,88.41
2023-03-31T23:01:07.067Z,88.18
2023-03-31T23:03:34.755Z,87.57
2023-03-31T23:06:05.182Z,87.74
2023-03-31T23:08:33.682Z,87.56
2023-03-31T23:11:01.879Z,86.90
2023-03-31T23:13:29.983Z,87.09
2023-03-31T23:16:12.682Z,87.27
2023-03-31T23:18:44.462Z,87.17
2023-03-31T23:21:19.426Z,87.17
2023-03-31T23:23:47.050Z,87.41
2023-03-31T23:26:15.870Z,87.40
2023-03-31T23:28:43.876Z,88.14
2023-03-31T23:31:11.303Z,88.13
2023-03-31T23:33:38.736Z,88.16
2023-03-31T23:36:07.616Z,88.83
2023-03-31T23:38:35.756Z,89.06
2023-03-31T23:41:03.713Z,88.62
2023-03-31T23:43:31.154Z,88.40
2023-03-31T23:45:58.705Z,88.50
2023-03-31T23:48:26.453Z,89.43
2023-03-31T23:50:53.807Z,89.19
2023-03-31T23:53:21.462Z,88.14
2023-03-31T23:55:56.523Z,88.52
2023-03-31T23:58:25.428Z,88.73
